createdAt,value
2019-01-23T00:00:33.667Z,-3.05
2019-01-23T00:01:33.662Z,-3.15
2019-01-23T00:02:33.650Z,-3.09
2019-01-23T00:03:33.641Z,-3.05
2019-01-23T00:04:33.662Z,-3.09
2019-01-23T00:05:33.620Z,-3.23
2019-01-23T00:06:33.607Z,-3.14
2019-01-23T00:07:33.606Z,-3.27
2019-01-23T00:08:33.612Z,-3.23
2019-01-23T00:09:33.599Z,-3.24
2019-01-23T00:10:33.603Z,-3.27
2019-01-23T00:11:33.554Z,-3.18
2019-01-23T00:12:33.543Z,-3.33
2019-01-23T00:13:33.539Z,-3.25
2019-01-23T00:14:33.523Z,-3.24
2019-01-23T00:15:33.533Z,-3.31
2019-01-23T00:16:33.506Z,-3.25
2019-01-23T00:17:33.488Z,-3.38
2019-01-23T00:18:33.480Z,-3.33
2019-01-23T00:19:33.470Z,-3.31
2019-01-23T00:20:33.483Z,-3.43
2019-01-23T00:21:33.469Z,-3.49
2019-01-23T00:22:33.434Z,-3.53
2019-01-23T00:23:33.428Z,-3.41
2019-01-23T00:24:33.415Z,-3.45
2019-01-23T00:25:33.399Z,-3.28
2019-01-23T00:26:33.417Z,-3.25
2019-01-23T00:27:33.381Z,-3.25
2019-01-23T00:28:33.368Z,-3.33
2019-01-23T00:29:33.357Z,-3.33
2019-01-23T00:30:33.346Z,-3.31
2019-01-23T00:31:33.357Z,-3.30
2019-01-23T00:32:33.362Z,-3.30
2019-01-23T00:33:33.331Z,-3.35
2019-01-23T00:34:33.306Z,-3.35
2019-01-23T00:35:33.287Z,-3.38
2019-01-23T00:36:33.319Z,-3.31
2019-01-23T00:37:33.276Z,-3.28
2019-01-23T00:38:33.255Z,-3.31
2019-01-23T00:39:33.265Z,-3.35
2019-01-23T00:40:33.239Z,-3.31
2019-01-23T00:41:33.227Z,-3.35
2019-01-23T00:42:33.241Z,-3.30
2019-01-23T00:43:33.229Z,-3.35
2019-01-23T00:44:33.189Z,-3.28
2019-01-23T00:45:33.184Z,-3.31
2019-01-23T00:46:33.175Z,-3.36
2019-01-23T00:47:33.174Z,-3.35
2019-01-23T00:48:33.188Z,-3.41
2019-01-23T00:49:33.143Z,-3.35
2019-01-23T00:50:33.145Z,-3.46
2019-01-23T00:51:33.121Z,-3.52
2019-01-23T00:52:33.115Z,-3.48
2019-01-23T00:53:33.116Z,-3.42
2019-01-23T00:54:33.116Z,-3.30
2019-01-23T00:55:33.072Z,-3.28
2019-01-23T00:56:33.077Z,-3.31
2019-01-23T00:57:33.056Z,-3.33
2019-01-23T00:58:33.058Z,-3.30
2019-01-23T00:59:33.040Z,-3.30
2019-01-23T01:00:33.053Z,-3.27
2019-01-23T01:01:33.007Z,-3.25
2019-01-23T01:02:32.996Z,-3.35
2019-01-23T01:03:32.990Z,-3.31
2019-01-23T01:04:32.973Z,-3.31
2019-01-23T01:05:33.011Z,-3.27
2019-01-23T01:06:32.970Z,-3.31
2019-01-23T01:07:32.952Z,-3.20
2019-01-23T01:08:32.932Z,-3.25
2019-01-23T01:09:32.934Z,-3.12
2019-01-23T01:10:32.921Z,-3.10
2019-01-23T01:11:32.938Z,-3.03
2019-01-23T01:12:32.890Z,-3.15
2019-01-23T01:13:32.883Z,-3.18
2019-01-23T01:14:32.880Z,-3.12
2019-01-23T01:15:32.883Z,-3.20
2019-01-23T01:16:32.873Z,-3.17
2019-01-23T01:17:32.838Z,-3.17
2019-01-23T01:18:32.827Z,-3.17
2019-01-23T01:19:32.817Z,-3.25
2019-01-23T01:20:32.814Z,-3.31
2019-01-23T01:21:32.834Z,-3.33
2019-01-23T01:22:32.783Z,-3.35
2019-01-23T01:23:32.774Z,-3.33
2019-01-23T01:24:32.757Z,-3.48
2019-01-23T01:25:32.765Z,-3.56
2019-01-23T01:26:32.785Z,-3.66
2019-01-23T01:27:32.747Z,-3.63
2019-01-23T01:28:32.723Z,-3.69
2019-01-23T01:29:32.724Z,-3.67
2019-01-23T01:30:32.699Z,-3.69
2019-01-23T01:31:32.688Z,-3.63
2019-01-23T01:32:32.703Z,-3.64
2019-01-23T01:33:34.062Z,-3.67
2019-01-23T01:34:32.670Z,-3.66
2019-01-23T01:35:32.649Z,-3.69
2019-01-23T01:36:32.646Z,-3.64
2019-01-23T01:37:32.642Z,-3.59
2019-01-23T01:38:32.607Z,-3.59
2019-01-23T01:39:32.599Z,-3.67
2019-01-23T01:40:32.591Z,-3.71
2019-01-23T01:41:32.579Z,-3.64
2019-01-23T01:42:32.566Z,-3.60
2019-01-23T01:43:32.580Z,-3.62
2019-01-23T01:44:32.545Z,-3.45
2019-01-23T01:45:32.529Z,-3.52
2019-01-23T01:46:32.548Z,-3.52
2019-01-23T01:47:32.507Z,-3.45
2019-01-23T01:48:32.523Z,-3.59
2019-01-23T01:49:32.488Z,-3.52
2019-01-23T01:50:32.477Z,-3.39
2019-01-23T01:51:32.472Z,-3.43
2019-01-23T01:52:32.457Z,-3.33
2019-01-23T01:53:32.532Z,-3.31
2019-01-23T01:54:32.442Z,-3.43
2019-01-23T01:55:32.423Z,-3.28
2019-01-23T01:56:32.415Z,-3.33
2019-01-23T01:57:32.405Z,-3.28
2019-01-23T01:58:32.398Z,-3.20
2019-01-23T01:59:32.408Z,-3.31
2019-01-23T02:00:32.370Z,-3.20
2019-01-23T02:01:32.361Z,-3.25
2019-01-23T02:02:32.354Z,-3.21
2019-01-23T18:15:16.112Z,-3.59
2019-01-23T18:16:03.954Z,-3.67
2019-01-23T18:17:03.958Z,-3.46
2019-01-23T18:18:03.907Z,-3.45
2019-01-23T18:19:03.898Z,-3.39
2019-01-23T18:20:03.889Z,-3.25
2019-01-23T18:21:03.877Z,-3.30
2019-01-23T18:22:03.871Z,-3.24
2019-01-23T18:23:03.892Z,-3.21
2019-01-23T18:24:03.848Z,-3.18
2019-01-23T18:25:03.854Z,-3.21
2019-01-23T18:26:03.852Z,-3.24
2019-01-23T18:27:03.814Z,-3.21
2019-01-23T18:28:03.877Z,-3.21
2019-01-23T18:29:03.786Z,-3.27
2019-01-23T18:30:03.800Z,-3.23
2019-01-23T18:31:03.795Z,-3.35
2019-01-23T18:32:03.792Z,-3.31
2019-01-23T18:33:03.754Z,-3.24
2019-01-23T18:34:03.761Z,-3.30
2019-01-23T18:35:03.728Z,-3.33
2019-01-23T18:36:03.724Z,-3.42
2019-01-23T18:37:03.725Z,-3.39
2019-01-23T18:38:03.729Z,-3.38
2019-01-23T18:39:03.685Z,-3.42
2019-01-23T18:40:03.717Z,-3.35
2019-01-23T18:41:03.666Z,-3.31
2019-01-23T18:42:03.651Z,-3.35
2019-01-23T18:43:03.642Z,-3.35
2019-01-23T18:44:03.752Z,-3.33
2019-01-23T18:45:03.629Z,-3.25
2019-01-23T18:46:03.631Z,-3.23
2019-01-23T18:47:03.631Z,-3.10
2019-01-23T18:48:03.593Z,-3.07
2019-01-23T18:49:03.579Z,-3.06
2019-01-23T18:50:03.586Z,-3.15
2019-01-23T18:51:03.635Z,-3.12
2019-01-23T18:52:03.555Z,-3.07
2019-01-23T18:53:03.535Z,-3.23
2019-01-23T18:54:03.520Z,-3.21
2019-01-23T18:55:03.515Z,-3.27
2019-01-23T18:56:03.497Z,-3.25
2019-01-23T18:57:03.514Z,-3.30
2019-01-23T18:58:03.486Z,-3.35
2019-01-23T18:59:03.463Z,-3.36
2019-01-23T19:00:03.524Z,-3.33
2019-01-23T19:01:03.451Z,-3.28
2019-01-23T19:02:03.497Z,-3.23
2019-01-23T19:03:07.236Z,-3.31
2019-01-23T19:04:03.414Z,-3.21
2019-01-23T19:05:03.410Z,-3.17
2019-01-23T19:06:03.394Z,-3.06
2019-01-23T19:07:03.388Z,-3.09
2019-01-23T19:08:03.448Z,-3.09
2019-01-23T19:09:03.357Z,-3.09
2019-01-23T19:10:03.348Z,-3.05
2019-01-23T19:11:03.368Z,-3.09
2019-01-23T19:12:03.325Z,-3.21
2019-01-23T19:13:03.342Z,-3.33
2019-01-23T19:14:03.360Z,-3.30
2019-01-23T19:15:03.321Z,-3.30
2019-01-23T19:16:03.294Z,-3.30
2019-01-23T19:17:03.272Z,-3.33
2019-01-23T19:18:03.266Z,-3.30
2019-01-23T19:19:03.274Z,-3.23
2019-01-23T19:20:03.255Z,-3.23
2019-01-23T19:21:03.231Z,-3.27
2019-01-23T19:22:03.222Z,-3.21
2019-01-23T19:23:03.252Z,-3.09
2019-01-23T19:24:03.229Z,-3.12
2019-01-23T19:25:03.195Z,-2.94
2019-01-23T19:26:03.209Z,-3.06
2019-01-23T19:27:03.192Z,-3.12
2019-01-23T19:28:03.174Z,-3.07
2019-01-23T19:29:03.183Z,-3.10
2019-01-23T19:30:09.178Z,-3.09
2019-01-23T19:31:04.145Z,-3.09
2019-01-23T19:32:03.133Z,-3.14
2019-01-23T19:33:03.119Z,-3.06
2019-01-23T19:34:03.106Z,-3.09
2019-01-23T19:35:03.123Z,-3.10
2019-01-23T19:36:03.073Z,-3.24
2019-01-23T19:37:03.058Z,-3.15
2019-01-23T19:38:03.049Z,-3.10
2019-01-23T19:39:03.061Z,-3.06
2019-01-23T19:40:03.063Z,-3.10
2019-01-23T19:41:03.021Z,-3.17
2019-01-23T19:42:03.014Z,-3.15
2019-01-23T19:43:03.024Z,-3.21
2019-01-23T19:44:02.989Z,-3.17
2019-01-23T19:45:03.036Z,-3.21
2019-01-23T19:46:02.980Z,-3.28
2019-01-23T19:47:02.956Z,-3.24
2019-01-23T19:48:02.963Z,-3.23
2019-01-23T19:49:03.006Z,-3.27
2019-01-23T19:50:02.920Z,-3.31
2019-01-23T19:51:02.945Z,-3.30
2019-01-23T19:52:02.906Z,-3.27
2019-01-23T19:53:02.894Z,-3.27
2019-01-23T19:54:02.882Z,-3.20
2019-01-23T19:55:02.875Z,-3.07
2019-01-23T19:56:02.908Z,-3.06
2019-01-23T19:57:02.852Z,-3.00
2019-01-23T19:58:04.486Z,-3.02
2019-01-23T19:59:02.824Z,-2.94
2019-01-23T20:00:02.818Z,-3.10
2019-01-23T20:01:02.803Z,-3.15
2019-01-23T20:02:02.848Z,-3.20
2019-01-23T20:03:02.782Z,-3.14
2019-01-23T20:04:02.769Z,-3.06
2019-01-23T20:05:02.767Z,-3.09
2019-01-23T20:06:02.754Z,-3.10
2019-01-23T20:07:02.742Z,-3.09
2019-01-23T20:08:02.757Z,-3.05
2019-01-23T20:09:02.716Z,-3.02
2019-01-23T20:10:02.726Z,-2.88
2019-01-23T20:11:02.698Z,-2.79
2019-01-23T20:12:02.735Z,-2.92
2019-01-23T20:13:02.870Z,-2.82
2019-01-23T20:14:02.664Z,-2.86
2019-01-23T20:15:02.677Z,-2.78
2019-01-23T20:16:02.647Z,-2.70
2019-01-23T20:17:02.649Z,-2.67
2019-01-23T20:18:02.657Z,-2.61
2019-01-23T20:19:02.613Z,-2.68
2019-01-23T20:20:02.614Z,-2.56
2019-01-23T20:21:02.611Z,-2.56
2019-01-23T20:22:02.616Z,-2.60
2019-01-23T20:23:02.570Z,-2.64
2019-01-23T20:24:02.593Z,-2.61
2019-01-23T20:25:02.562Z,-2.63
2019-01-23T20:26:02.534Z,-2.56
2019-01-23T20:27:02.550Z,-2.63
2019-01-23T20:28:02.541Z,-2.68
2019-01-23T20:29:02.525Z,-2.70
2019-01-23T20:30:02.497Z,-2.73
2019-01-23T20:31:02.493Z,-2.73
2019-01-23T20:32:02.476Z,-2.79
2019-01-23T20:33:02.517Z,-2.73
2019-01-23T20:34:02.449Z,-2.82
2019-01-23T20:35:02.442Z,-2.84
2019-01-23T20:36:02.443Z,-2.86
2019-01-23T20:37:02.418Z,-2.74
2019-01-23T20:38:02.456Z,-2.79
2019-01-23T20:39:02.621Z,-2.61
2019-01-23T20:40:02.536Z,-2.61
2019-01-23T20:41:02.385Z,-2.64
2019-01-23T20:42:02.363Z,-2.55
2019-01-23T20:43:02.358Z,-2.60
2019-01-23T20:44:02.340Z,-2.55
2019-01-23T20:45:02.355Z,-2.52
2019-01-23T20:46:02.400Z,-2.50
2019-01-23T20:47:02.310Z,-2.48
2019-01-23T20:48:02.306Z,-2.35
2019-01-23T20:49:02.296Z,-2.42
2019-01-23T20:50:02.282Z,-2.45
2019-01-23T20:51:02.274Z,-2.39
2019-01-23T20:52:02.295Z,-2.45
2019-01-23T20:53:02.286Z,-2.45
2019-01-23T20:54:02.250Z,-2.45
2019-01-23T20:55:02.230Z,-2.45
2019-01-23T20:56:02.234Z,-2.46
2019-01-23T20:57:02.276Z,-2.46
2019-01-23T20:58:02.194Z,-2.46
2019-01-23T20:59:02.190Z,-2.46
2019-01-23T21:00:02.171Z,-2.48
2019-01-23T21:01:02.169Z,-2.46
2019-01-23T21:02:02.263Z,-2.48
2019-01-23T21:03:02.221Z,-2.43
2019-01-23T21:04:02.133Z,-2.46
2019-01-23T21:05:02.114Z,-2.46
2019-01-23T21:06:02.123Z,-2.35
2019-01-23T21:07:02.100Z,-2.35
2019-01-23T21:08:02.094Z,-2.45
2019-01-23T21:09:02.114Z,-2.39
2019-01-23T21:10:02.087Z,-2.30
2019-01-23T21:11:02.048Z,-2.29
2019-01-23T21:12:02.087Z,-2.27
2019-01-23T21:13:02.029Z,-2.23
2019-01-23T21:14:02.080Z,-2.21
2019-01-23T21:15:02.034Z,-2.16
2019-01-23T21:16:02.011Z,-2.15
2019-01-23T21:17:02.000Z,-2.10
2019-01-23T21:18:01.980Z,-2.10
2019-01-23T21:19:02.078Z,-2.09
2019-01-23T21:20:01.961Z,-2.12
2019-01-23T21:21:01.947Z,-2.20
2019-01-23T21:22:01.979Z,-2.15
2019-01-23T21:23:01.929Z,-2.18
2019-01-23T21:24:01.934Z,-2.13
2019-01-23T21:25:02.473Z,-2.09
2019-01-23T21:26:01.938Z,-1.98
2019-01-23T21:27:01.875Z,-1.98
2019-01-23T21:28:01.884Z,-1.98
2019-01-23T21:29:01.860Z,-2.12
2019-01-23T21:30:02.007Z,-1.98
2019-01-23T21:31:01.842Z,-1.94
2019-01-23T21:32:01.878Z,-1.91
2019-01-23T21:33:01.821Z,-1.92
2019-01-23T21:34:01.828Z,-1.90
2019-01-23T21:35:01.794Z,-1.90
2019-01-23T21:36:01.804Z,-2.03
2019-01-23T21:37:01.794Z,-2.12
2019-01-23T21:38:01.799Z,-2.13
2019-01-23T21:39:01.754Z,-2.12
2019-01-23T21:40:01.767Z,-2.08
2019-01-23T21:41:01.810Z,-2.15
2019-01-23T21:42:01.720Z,-2.18
2019-01-23T21:43:02.791Z,-2.09
2019-01-23T21:44:01.732Z,-2.09
2019-01-23T21:45:01.682Z,-1.98
2019-01-23T21:46:01.713Z,-2.02
2019-01-23T21:47:01.684Z,-2.00
2019-01-23T21:48:01.649Z,-1.91
2019-01-23T21:49:01.651Z,-1.90
2019-01-23T21:50:01.626Z,-1.82
2019-01-23T21:51:01.621Z,-1.84
2019-01-23T21:52:01.736Z,-1.79
2019-01-23T21:53:01.596Z,-1.80
2019-01-23T21:54:01.587Z,-1.91
2019-01-23T21:55:01.573Z,-1.97
2019-01-23T21:56:01.580Z,-1.98
2019-01-23T21:57:01.578Z,-1.97
2019-01-23T21:58:01.644Z,-2.08
2019-01-23T21:59:01.555Z,-2.05
2019-01-23T22:00:01.514Z,-2.03
2019-01-23T22:01:01.535Z,-2.06
2019-01-23T22:02:01.512Z,-1.98
2019-01-23T22:03:01.508Z,-1.97
2019-01-23T22:04:01.478Z,-1.90
2019-01-23T22:05:01.472Z,-1.90
2019-01-23T22:06:01.471Z,-1.88
2019-01-23T22:07:01.443Z,-1.87
2019-01-23T22:08:01.454Z,-1.85
2019-01-23T22:09:01.467Z,-1.88
2019-01-23T22:10:01.408Z,-1.88
2019-01-23T22:11:01.433Z,-1.85
2019-01-23T22:12:01.386Z,-1.85
2019-01-23T22:13:01.389Z,-1.77
2019-01-23T22:14:01.373Z,-1.73
2019-01-23T22:15:01.352Z,-1.66
2019-01-23T22:16:01.356Z,-1.79
2019-01-23T22:17:01.374Z,-1.69
2019-01-23T22:18:01.375Z,-1.64
2019-01-23T22:19:01.311Z,-1.64
2019-01-23T22:20:01.303Z,-1.64
2019-01-23T22:21:01.292Z,-1.64
2019-01-23T22:22:01.377Z,-1.66
2019-01-23T22:23:01.273Z,-1.69
2019-01-23T22:24:01.255Z,-1.64
2019-01-23T22:25:01.252Z,-1.66
2019-01-23T22:26:01.277Z,-1.66
2019-01-23T22:27:01.229Z,-1.58
2019-01-23T22:28:01.240Z,-1.66
2019-01-23T22:29:01.226Z,-1.59
2019-01-23T22:30:01.232Z,-1.66
2019-01-23T22:31:01.194Z,-1.66
2019-01-23T22:32:01.173Z,-1.61
2019-01-23T22:33:01.185Z,-1.62
2019-01-23T22:34:01.163Z,-1.62
2019-01-23T22:35:01.130Z,-1.61
2019-01-23T22:36:01.124Z,-1.51
2019-01-23T22:37:01.141Z,-1.61
2019-01-23T22:38:01.179Z,-1.54
2019-01-23T22:39:01.092Z,-1.55
2019-01-23T22:40:01.112Z,-1.51
2019-01-23T22:41:01.067Z,-1.45
2019-01-23T22:42:01.060Z,-1.49
2019-01-23T22:43:01.071Z,-1.51
2019-01-23T22:44:01.076Z,-1.51
2019-01-23T22:45:01.074Z,-1.51
2019-01-23T22:46:01.009Z,-1.49
2019-01-23T22:47:01.006Z,-1.55
2019-01-23T22:48:00.991Z,-1.51
2019-01-23T22:49:01.003Z,-1.51
2019-01-23T22:50:00.976Z,-1.52
2019-01-23T22:51:00.973Z,-1.61
2019-01-23T22:52:00.962Z,-1.51
2019-01-23T22:53:00.935Z,-1.45
2019-01-23T22:54:00.970Z,-1.46
2019-01-23T22:55:00.940Z,-1.56
2019-01-23T22:56:00.904Z,-1.64
2019-01-23T22:57:00.897Z,-1.67
2019-01-23T22:58:00.885Z,-1.61
2019-01-23T22:59:00.921Z,-1.61
2019-01-23T23:00:00.886Z,-1.52
2019-01-23T23:01:00.892Z,-1.56
2019-01-23T23:02:00.842Z,-1.52
2019-01-23T23:03:00.830Z,-1.51
2019-01-23T23:04:03.475Z,-1.49
2019-01-23T23:05:00.816Z,-1.37
2019-01-23T23:06:00.803Z,-1.37
2019-01-23T23:07:00.786Z,-1.40
2019-01-23T23:08:00.778Z,-1.34
2019-01-23T23:09:00.778Z,-1.43
2019-01-23T23:10:00.781Z,-1.48
2019-01-23T23:11:00.746Z,-1.56
2019-01-23T23:12:00.776Z,-1.55
2019-01-23T23:13:00.715Z,-1.69
2019-01-23T23:14:00.707Z,-1.61
2019-01-23T23:15:00.746Z,-1.61
2019-01-23T23:16:00.690Z,-1.62
2019-01-23T23:17:00.678Z,-1.61
2019-01-23T23:18:00.690Z,-1.55
2019-01-23T23:19:00.692Z,-1.54
2019-01-23T23:20:00.644Z,-1.55
2019-01-23T23:21:00.658Z,-1.69
2019-01-23T23:22:00.619Z,-1.59
2019-01-23T23:23:00.689Z,-1.56
2019-01-23T23:24:00.604Z,-1.59
2019-01-23T23:25:00.585Z,-1.55
2019-01-23T23:26:00.602Z,-1.54
2019-01-23T23:27:00.564Z,-1.38
2019-01-23T23:28:00.697Z,-1.40
2019-01-23T23:29:00.573Z,-1.46
2019-01-23T23:30:00.596Z,-1.43
2019-01-23T23:31:00.555Z,-1.35
2019-01-23T23:32:00.568Z,-1.37
2019-01-23T23:33:00.496Z,-1.38
2019-01-23T23:34:00.590Z,-1.38
2019-01-23T23:35:00.476Z,-1.37
2019-01-23T23:36:00.461Z,-1.52
2019-01-23T23:37:00.467Z,-1.41
2019-01-23T23:38:00.462Z,-1.46
2019-01-23T23:39:00.469Z,-1.46
2019-01-23T23:40:00.482Z,-1.40
2019-01-23T23:41:00.418Z,-1.37
2019-01-23T23:42:00.410Z,-1.40
2019-01-23T23:43:00.384Z,-1.37
2019-01-23T23:44:00.382Z,-1.41
2019-01-23T23:46:00.414Z,-1.35
2019-01-23T23:47:00.377Z,-1.31
2019-01-23T23:48:00.382Z,-1.40
2019-01-23T23:49:00.321Z,-1.43
2019-01-23T23:50:00.343Z,-1.41
2019-01-23T23:51:00.351Z,-1.45
2019-01-23T23:52:00.304Z,-1.49
2019-01-23T23:53:00.276Z,-1.37
2019-01-23T23:54:00.286Z,-1.37
2019-01-23T23:55:00.267Z,-1.40
2019-01-23T23:56:00.276Z,-1.56
2019-01-23T23:57:00.253Z,-1.55
2019-01-23T23:58:00.232Z,-1.55
2019-01-23T23:59:00.211Z,-1.61
